Time;durP1;ratioP1;P1;durP2;ratioP2;P2;SDS_P1;SDS_P2;PMS_P1;PMS_P2;Temp;Humidity;BMP_temperature;BMP_pressure;BME280_temperature;BME280_humidity;BME280_pressure;Samples;Min_cycle;Max_cycle;Signal;HPM_P1;HPM_P2
2023/08/31 00:02:24;;;;;;;5.78;0.93;;;;;;;;;;4983804;28;20068;-76
2023/08/31 00:04:53;;;;;;;4.30;0.98;;;;;;;;;;4986727;28;20033;-74
2023/08/31 00:07:19;;;;;;;2.67;0.43;;;;;;;;;;4981858;28;20630;-75
2023/08/31 00:09:45;;;;;;;5.38;1.13;;;;;;;;;;4986403;28;20500;-74
2023/08/31 00:12:11;;;;;;;6.47;1.42;;;;;;;;;;4981387;28;20056;-75
2023/08/31 00:14:37;;;;;;;4.10;1.00;;;;;;;;;;4996337;28;20045;-75
2023/08/31 00:17:03;;;;;;;2.85;0.65;;;;;;;;;;4984310;28;20027;-75
2023/08/31 00:19:29;;;;;;;3.85;1.00;;;;;;;;;;4989149;28;20464;-73
2023/08/31 00:21:55;;;;;;;3.78;1.52;;;;;;;;;;4991624;28;20050;-75
2023/08/31 00:24:28;;;;;;;8.15;1.10;;;;;;;;;;4985565;28;20402;-74
2023/08/31 00:26:54;;;;;;;1.95;0.60;;;;;;;;;;4985606;28;20084;-74
2023/08/31 00:29:20;;;;;;;2.70;0.47;;;;;;;;;;4989023;28;20043;-73
2023/08/31 00:31:48;;;;;;;4.93;0.73;;;;;;;;;;4974512;28;20110;-74
2023/08/31 00:34:14;;;;;;;2.03;0.75;;;;;;;;;;4982333;28;20050;-73
2023/08/31 00:36:40;;;;;;;0.70;0.40;;;;;;;;;;4982990;28;20566;-74
2023/08/31 00:39:10;;;;;;;3.80;1.23;;;;;;;;;;4989196;28;20058;-74
2023/08/31 00:41:36;;;;;;;3.53;1.05;;;;;;;;;;4974284;28;20074;-73
2023/08/31 00:44:04;;;;;;;3.10;0.43;;;;;;;;;;4979856;28;20030;-74
2023/08/31 00:46:31;;;;;;;3.45;0.65;;;;;;;;;;4976058;28;20062;-74
2023/08/31 00:48:57;;;;;;;5.00;0.55;;;;;;;;;;4979980;28;20506;-75
2023/08/31 00:51:24;;;;;;;2.53;0.50;;;;;;;;;;4986539;28;20062;-74
2023/08/31 00:53:53;;;;;;;2.45;0.63;;;;;;;;;;4980019;28;20495;-77
2023/08/31 00:56:20;;;;;;;2.28;0.52;;;;;;;;;;4991323;28;20046;-74
2023/08/31 00:58:46;;;;;;;8.80;4.05;;;;;;;;;;4988422;28;20045;-74
2023/08/31 01:01:27;;;;;;;3.30;0.70;;;;;;;;;;4989561;28;20050;-73
2023/08/31 01:04:08;;;;;;;4.95;1.58;;;;;;;;;;4992666;28;20030;-73
2023/08/31 01:06:37;;;;;;;2.45;0.80;;;;;;;;;;4986566;28;20098;-74
2023/08/31 01:09:10;;;;;;;6.13;0.50;;;;;;;;;;4983969;28;20137;-73
2023/08/31 01:11:54;;;;;;;3.67;0.65;;;;;;;;;;4985617;28;20042;-76
2023/08/31 01:14:24;;;;;;;2.83;0.45;;;;;;;;;;4986020;28;20033;-78
2023/08/31 01:16:51;;;;;;;1.73;0.55;;;;;;;;;;4989347;28;20026;-78
2023/08/31 01:19:17;;;;;;;2.03;0.57;;;;;;;;;;4985739;28;20472;-77
2023/08/31 01:21:45;;;;;;;3.78;1.00;;;;;;;;;;4983854;28;20058;-76
2023/08/31 01:24:12;;;;;;;2.20;0.85;;;;;;;;;;4987055;28;20030;-73
2023/08/31 01:26:38;;;;;;;3.35;1.00;;;;;;;;;;4984586;28;20039;-74
2023/08/31 01:29:04;;;;;;;3.15;0.60;;;;;;;;;;4987333;28;20030;-73
2023/08/31 01:31:30;;;;;;;5.65;1.50;;;;;;;;;;4988545;28;20038;-73
2023/08/31 01:33:56;;;;;;;2.13;0.60;;;;;;;;;;4987449;28;20558;-75
2023/08/31 01:36:30;;;;;;;1.27;0.40;;;;;;;;;;4985274;28;20043;-73
2023/08/31 01:39:06;;;;;;;1.70;0.60;;;;;;;;;;4982257;28;20038;-73
2023/08/31 01:41:34;;;;;;;5.53;1.05;;;;;;;;;;4976846;28;21012;-72
2023/08/31 01:44:02;;;;;;;1.60;0.65;;;;;;;;;;4979010;28;20468;-74
2023/08/31 01:46:28;;;;;;;2.60;0.65;;;;;;;;;;4982133;28;20049;-74
2023/08/31 01:48:54;;;;;;;1.70;0.60;;;;;;;;;;4983999;28;20066;-73
2023/08/31 01:51:20;;;;;;;2.58;0.73;;;;;;;;;;4987049;28;20038;-73
2023/08/31 01:53:46;;;;;;;2.28;0.55;;;;;;;;;;4988407;28;20053;-73
2023/08/31 01:56:13;;;;;;;2.55;0.80;;;;;;;;;;4984623;28;20488;-73
2023/08/31 01:58:39;;;;;;;2.67;1.00;;;;;;;;;;4985718;28;20042;-72
2023/08/31 02:01:05;;;;;;;2.35;1.30;;;;;;;;;;4985072;28;20050;-72
2023/08/31 02:03:31;;;;;;;7.03;3.30;;;;;;;;;;4980640;28;20023;-73
2023/08/31 02:05:57;;;;;;;2.97;1.17;;;;;;;;;;4996233;28;20056;-72
2023/08/31 02:08:23;;;;;;;4.25;1.50;;;;;;;;;;4993294;28;20026;-73
2023/08/31 02:10:49;;;;;;;1.33;0.60;;;;;;;;;;4983513;28;20044;-73
2023/08/31 02:13:16;;;;;;;3.35;1.10;;;;;;;;;;4985538;28;20043;-72
2023/08/31 02:15:42;;;;;;;6.65;1.60;;;;;;;;;;4972404;28;20084;-72
2023/08/31 02:18:08;;;;;;;2.22;0.73;;;;;;;;;;4992191;28;20499;-72
2023/08/31 02:20:34;;;;;;;2.50;1.40;;;;;;;;;;4991834;28;20096;-71
2023/08/31 02:23:00;;;;;;;3.67;1.13;;;;;;;;;;4991951;28;20057;-71
2023/08/31 02:25:28;;;;;;;1.90;0.90;;;;;;;;;;4988879;28;20031;-72
2023/08/31 02:27:54;;;;;;;5.55;1.23;;;;;;;;;;4985195;28;20117;-72
2023/08/31 02:30:20;;;;;;;2.45;1.02;;;;;;;;;;4985771;28;20078;-72
2023/08/31 02:32:47;;;;;;;0.82;0.40;;;;;;;;;;4991504;28;20058;-72
2023/08/31 02:35:13;;;;;;;2.13;0.82;;;;;;;;;;4990929;28;20034;-72
2023/08/31 02:37:39;;;;;;;1.85;0.75;;;;;;;;;;4980779;28;20031;-73
2023/08/31 02:40:06;;;;;;;7.20;1.35;;;;;;;;;;4988776;28;20034;-72
2023/08/31 02:42:32;;;;;;;2.55;0.77;;;;;;;;;;4990482;28;20484;-73
2023/08/31 02:44:58;;;;;;;4.80;1.15;;;;;;;;;;4976654;28;20580;-72
2023/08/31 02:47:24;;;;;;;1.90;0.55;;;;;;;;;;4992585;28;20385;-73
2023/08/31 02:49:50;;;;;;;5.25;1.85;;;;;;;;;;4988117;28;20045;-73
2023/08/31 02:52:16;;;;;;;2.30;0.65;;;;;;;;;;4985953;28;20046;-72
2023/08/31 02:54:42;;;;;;;4.80;1.25;;;;;;;;;;4987987;28;20093;-72
2023/08/31 02:57:08;;;;;;;4.20;1.13;;;;;;;;;;4988206;28;20149;-72
2023/08/31 02:59:35;;;;;;;1.35;0.45;;;;;;;;;;4980679;28;20049;-72
2023/08/31 03:02:02;;;;;;;5.63;0.75;;;;;;;;;;4990055;28;20043;-74
2023/08/31 03:04:28;;;;;;;1.85;0.90;;;;;;;;;;4993697;28;20066;-72
2023/08/31 03:06:54;;;;;;;2.50;0.75;;;;;;;;;;4991442;28;20034;-72
2023/08/31 03:09:20;;;;;;;3.47;0.57;;;;;;;;;;4985511;28;20049;-74
2023/08/31 03:11:47;;;;;;;9.63;1.15;;;;;;;;;;4990106;28;20170;-73
2023/08/31 03:14:13;;;;;;;3.00;0.73;;;;;;;;;;4988908;28;20445;-74
2023/08/31 03:16:39;;;;;;;2.35;1.05;;;;;;;;;;4982196;28;20038;-73
2023/08/31 03:19:05;;;;;;;1.58;0.50;;;;;;;;;;4987907;28;20044;-74
2023/08/31 03:21:31;;;;;;;2.08;0.68;;;;;;;;;;4989781;28;20057;-73
2023/08/31 03:23:57;;;;;;;4.93;0.90;;;;;;;;;;4986441;28;20123;-73
2023/08/31 03:26:23;;;;;;;3.83;0.90;;;;;;;;;;4996631;28;20030;-72
2023/08/31 03:28:49;;;;;;;2.20;0.82;;;;;;;;;;4981240;28;20125;-72
2023/08/31 03:31:15;;;;;;;2.75;0.95;;;;;;;;;;4985491;28;20121;-73
2023/08/31 03:33:41;;;;;;;4.10;1.10;;;;;;;;;;4981321;28;20065;-72
2023/08/31 03:36:07;;;;;;;5.10;0.65;;;;;;;;;;4993060;28;20436;-74
2023/08/31 03:38:37;;;;;;;4.22;1.10;;;;;;;;;;4988358;28;20038;-72
2023/08/31 03:41:04;;;;;;;3.78;0.80;;;;;;;;;;4986457;28;20046;-71
2023/08/31 03:43:30;;;;;;;2.97;0.70;;;;;;;;;;4986416;28;20026;-73
2023/08/31 03:45:57;;;;;;;1.92;1.00;;;;;;;;;;4985272;28;20084;-73
2023/08/31 03:48:24;;;;;;;6.05;0.52;;;;;;;;;;4984403;28;20110;-72
2023/08/31 03:50:51;;;;;;;2.58;0.80;;;;;;;;;;4980624;28;20046;-72
2023/08/31 03:53:17;;;;;;;3.03;1.05;;;;;;;;;;4987597;28;20030;-72
2023/08/31 03:55:43;;;;;;;5.90;0.73;;;;;;;;;;4989446;28;20104;-72
2023/08/31 03:58:09;;;;;;;3.72;0.98;;;;;;;;;;4990487;28;20508;-75
2023/08/31 04:00:35;;;;;;;4.70;1.25;;;;;;;;;;4986211;28;20041;-72
2023/08/31 04:03:01;;;;;;;5.40;1.25;;;;;;;;;;4989216;28;20083;-74
2023/08/31 04:05:27;;;;;;;4.80;1.10;;;;;;;;;;4994935;28;20034;-73
2023/08/31 04:07:53;;;;;;;4.68;0.88;;;;;;;;;;4993778;28;20041;-75
2023/08/31 04:10:19;;;;;;;9.93;1.30;;;;;;;;;;4980632;28;20030;-72
2023/08/31 04:12:45;;;;;;;5.43;1.75;;;;;;;;;;4979281;28;20219;-73
2023/08/31 04:15:13;;;;;;;10.38;1.70;;;;;;;;;;4983458;28;20495;-72
2023/08/31 04:17:39;;;;;;;5.88;0.93;;;;;;;;;;4987324;28;20027;-72
2023/08/31 04:20:05;;;;;;;7.80;1.35;;;;;;;;;;4977543;28;20480;-72
2023/08/31 04:22:31;;;;;;;6.22;1.02;;;;;;;;;;4990440;28;20478;-72
2023/08/31 04:24:57;;;;;;;3.22;0.98;;;;;;;;;;4986913;28;20034;-72
2023/08/31 04:27:23;;;;;;;7.60;1.58;;;;;;;;;;4990204;28;20485;-72
2023/08/31 04:29:49;;;;;;;4.68;1.30;;;;;;;;;;5004058;28;20046;-73
2023/08/31 04:32:15;;;;;;;6.82;1.80;;;;;;;;;;4984403;28;20100;-73
2023/08/31 04:34:41;;;;;;;3.67;1.33;;;;;;;;;;4980200;28;20040;-74
2023/08/31 04:37:07;;;;;;;8.10;1.80;;;;;;;;;;4983115;28;20054;-72
2023/08/31 04:39:33;;;;;;;6.50;1.35;;;;;;;;;;4990520;28;20464;-75
2023/08/31 04:41:59;;;;;;;10.48;1.30;;;;;;;;;;4976065;28;20090;-74
2023/08/31 04:44:25;;;;;;;9.00;1.02;;;;;;;;;;4986587;28;20127;-75
2023/08/31 04:46:51;;;;;;;2.65;1.23;;;;;;;;;;4983610;28;20110;-76
2023/08/31 04:49:18;;;;;;;5.72;0.93;;;;;;;;;;4991302;28;20039;-74
2023/08/31 04:51:44;;;;;;;7.97;1.20;;;;;;;;;;4990789;28;20034;-71
2023/08/31 04:54:10;;;;;;;4.90;1.38;;;;;;;;;;4985468;28;20476;-72
2023/08/31 04:56:37;;;;;;;7.45;4.13;;;;;;;;;;4985103;28;20058;-73
2023/08/31 04:59:03;;;;;;;5.45;1.88;;;;;;;;;;4979896;28;20049;-72
2023/08/31 05:01:29;;;;;;;6.05;2.22;;;;;;;;;;4993429;28;20049;-72
2023/08/31 05:03:55;;;;;;;5.22;1.33;;;;;;;;;;4988812;28;20054;-73
2023/08/31 05:06:21;;;;;;;5.50;1.77;;;;;;;;;;4989936;28;20030;-73
2023/08/31 05:08:48;;;;;;;9.52;1.40;;;;;;;;;;4983149;28;20531;-74
2023/08/31 05:11:14;;;;;;;4.50;1.23;;;;;;;;;;4990800;28;20591;-72
2023/08/31 05:13:42;;;;;;;3.47;1.50;;;;;;;;;;4988705;28;20427;-72
2023/08/31 05:16:08;;;;;;;8.48;1.67;;;;;;;;;;4991489;28;20096;-72
2023/08/31 05:18:35;;;;;;;6.80;1.88;;;;;;;;;;4989534;28;20030;-72
2023/08/31 05:21:02;;;;;;;11.52;2.75;;;;;;;;;;4993348;28;20041;-72
2023/08/31 05:23:28;;;;;;;4.85;2.08;;;;;;;;;;4992352;28;20046;-72
2023/08/31 05:25:56;;;;;;;4.68;2.10;;;;;;;;;;4988176;28;20107;-72
2023/08/31 05:28:22;;;;;;;7.05;1.67;;;;;;;;;;4991313;28;20105;-72
2023/08/31 05:30:49;;;;;;;6.07;2.10;;;;;;;;;;4986010;28;20066;-71
2023/08/31 05:33:15;;;;;;;5.90;1.65;;;;;;;;;;4999631;28;22218;-72
2023/08/31 05:35:41;;;;;;;5.43;1.63;;;;;;;;;;4993039;28;20526;-72
2023/08/31 05:38:07;;;;;;;6.72;1.50;;;;;;;;;;4989812;28;20034;-73
2023/08/31 05:40:33;;;;;;;7.13;1.42;;;;;;;;;;4987119;28;20124;-72
2023/08/31 05:42:59;;;;;;;7.15;2.25;;;;;;;;;;4988822;28;20030;-73
2023/08/31 05:45:25;;;;;;;10.68;2.03;;;;;;;;;;4988153;28;20050;-74
2023/08/31 05:47:51;;;;;;;8.57;1.60;;;;;;;;;;4994881;28;20530;-72
2023/08/31 05:50:17;;;;;;;5.20;2.25;;;;;;;;;;4998173;28;20036;-72
2023/08/31 05:52:43;;;;;;;9.73;2.28;;;;;;;;;;4987929;28;20034;-71
2023/08/31 05:55:10;;;;;;;4.65;1.42;;;;;;;;;;4993115;28;20104;-73
2023/08/31 05:57:37;;;;;;;3.28;1.30;;;;;;;;;;4992675;28;20058;-72
2023/08/31 06:00:04;;;;;;;5.30;1.30;;;;;;;;;;4997674;28;20026;-72
2023/08/31 06:02:30;;;;;;;3.97;1.25;;;;;;;;;;4988564;28;20046;-72
2023/08/31 06:04:56;;;;;;;7.18;1.20;;;;;;;;;;4990003;28;20030;-73
2023/08/31 06:07:22;;;;;;;2.75;1.20;;;;;;;;;;4992065;28;20038;-72
2023/08/31 06:09:48;;;;;;;4.43;1.42;;;;;;;;;;4990020;28;20030;-73
2023/08/31 06:12:14;;;;;;;5.43;1.08;;;;;;;;;;4995672;28;20034;-73
2023/08/31 06:14:40;;;;;;;7.15;1.20;;;;;;;;;;4988391;28;20049;-72
2023/08/31 06:17:08;;;;;;;4.03;1.20;;;;;;;;;;4995355;28;20029;-72
2023/08/31 06:19:36;;;;;;;6.85;1.30;;;;;;;;;;4993772;28;20073;-73
2023/08/31 06:22:03;;;;;;;7.60;1.50;;;;;;;;;;4995542;28;20476;-71
2023/08/31 06:24:29;;;;;;;5.57;1.20;;;;;;;;;;4988200;28;20047;-71
2023/08/31 06:26:56;;;;;;;4.63;1.00;;;;;;;;;;4987614;28;20038;-72
2023/08/31 06:29:22;;;;;;;6.50;1.40;;;;;;;;;;4997079;28;20500;-72
2023/08/31 06:31:48;;;;;;;10.73;1.63;;;;;;;;;;4995381;28;20045;-72
2023/08/31 06:34:14;;;;;;;9.73;1.30;;;;;;;;;;4999825;28;20121;-71
2023/08/31 06:36:40;;;;;;;4.97;1.30;;;;;;;;;;4991567;28;20072;-74
2023/08/31 06:39:06;;;;;;;2.97;1.40;;;;;;;;;;4992844;28;20062;-72
2023/08/31 06:41:33;;;;;;;7.57;1.20;;;;;;;;;;4998667;28;20042;-74
2023/08/31 06:43:59;;;;;;;3.67;1.00;;;;;;;;;;4992854;28;20030;-71
2023/08/31 06:46:25;;;;;;;1.08;0.82;;;;;;;;;;4984341;28;20065;-72
2023/08/31 06:48:52;;;;;;;8.82;1.55;;;;;;;;;;4993789;28;20073;-74
2023/08/31 06:51:18;;;;;;;4.40;1.10;;;;;;;;;;4987584;28;20026;-71
2023/08/31 06:53:44;;;;;;;10.10;1.80;;;;;;;;;;4996344;28;20023;-71
2023/08/31 06:56:10;;;;;;;6.47;1.00;;;;;;;;;;4983232;28;20582;-73
2023/08/31 06:58:36;;;;;;;8.27;1.08;;;;;;;;;;4987476;28;20093;-72
2023/08/31 07:01:06;;;;;;;6.43;1.15;;;;;;;;;;4984433;28;20043;-72
2023/08/31 07:03:32;;;;;;;3.60;1.00;;;;;;;;;;4983216;28;20388;-74
2023/08/31 07:05:58;;;;;;;2.53;0.90;;;;;;;;;;4988803;28;20547;-73
2023/08/31 07:08:24;;;;;;;4.32;0.77;;;;;;;;;;4982494;28;20101;-75
2023/08/31 07:10:50;;;;;;;4.05;1.23;;;;;;;;;;4994618;28;20038;-75
2023/08/31 07:13:16;;;;;;;2.90;0.90;;;;;;;;;;4991931;28;20096;-75
2023/08/31 07:15:43;;;;;;;21.92;11.05;;;;;;;;;;4984191;28;20101;-76
2023/08/31 07:18:09;;;;;;;5.40;1.20;;;;;;;;;;4989968;28;20424;-74
2023/08/31 07:20:35;;;;;;;9.38;1.23;;;;;;;;;;4990963;28;20044;-71
2023/08/31 07:23:01;;;;;;;8.80;1.35;;;;;;;;;;4987310;28;20384;-72
2023/08/31 07:25:28;;;;;;;4.18;0.63;;;;;;;;;;4990611;28;20069;-73
2023/08/31 07:27:54;;;;;;;6.32;1.38;;;;;;;;;;4992395;28;20078;-74
2023/08/31 07:30:20;;;;;;;4.75;0.70;;;;;;;;;;4987833;28;20551;-73
2023/08/31 07:32:47;;;;;;;2.80;0.90;;;;;;;;;;4983051;28;20043;-72
2023/08/31 07:35:13;;;;;;;4.72;0.60;;;;;;;;;;4990641;28;20037;-72
2023/08/31 07:37:39;;;;;;;3.63;0.50;;;;;;;;;;4998618;28;20037;-72
2023/08/31 07:40:09;;;;;;;3.35;0.40;;;;;;;;;;4987980;28;20076;-72
2023/08/31 07:42:36;;;;;;;6.40;1.30;;;;;;;;;;4988439;28;20110;-71
2023/08/31 07:45:02;;;;;;;7.18;1.65;;;;;;;;;;4984294;28;20559;-73
2023/08/31 07:47:28;;;;;;;9.50;0.82;;;;;;;;;;4999493;28;20053;-74
2023/08/31 07:49:54;;;;;;;3.45;0.63;;;;;;;;;;4997091;28;20030;-72
2023/08/31 07:52:20;;;;;;;3.53;0.45;;;;;;;;;;4982454;28;20058;-74
2023/08/31 07:54:46;;;;;;;6.13;0.50;;;;;;;;;;4988555;28;20553;-74
2023/08/31 07:57:12;;;;;;;5.78;0.77;;;;;;;;;;4992813;28;20050;-73
2023/08/31 07:59:40;;;;;;;4.85;0.52;;;;;;;;;;4984694;28;20534;-74
2023/08/31 08:02:06;;;;;;;12.45;1.98;;;;;;;;;;4983186;28;20053;-74
2023/08/31 08:04:32;;;;;;;6.55;0.63;;;;;;;;;;4985555;28;20046;-74
2023/08/31 08:06:58;;;;;;;0.85;0.30;;;;;;;;;;4989706;28;20520;-74
2023/08/31 08:09:25;;;;;;;6.03;0.50;;;;;;;;;;4982017;28;20061;-74
2023/08/31 08:11:50;;;;;;;36.83;22.58;;;;;;;;;;4989910;28;20061;-75
2023/08/31 08:14:17;;;;;;;3.03;0.65;;;;;;;;;;4981610;28;20026;-73
2023/08/31 08:16:43;;;;;;;2.97;1.13;;;;;;;;;;4987776;28;20037;-71
2023/08/31 08:19:09;;;;;;;2.53;0.40;;;;;;;;;;4975485;28;20439;-76
2023/08/31 08:21:35;;;;;;;1.67;0.65;;;;;;;;;;4985113;28;20060;-74
2023/08/31 08:24:01;;;;;;;3.38;0.75;;;;;;;;;;4983370;28;20634;-75
2023/08/31 08:26:27;;;;;;;6.35;0.50;;;;;;;;;;4984737;28;20613;-76
2023/08/31 08:28:53;;;;;;;3.35;0.43;;;;;;;;;;4983143;28;20045;-75
2023/08/31 08:31:19;;;;;;;4.00;0.70;;;;;;;;;;4984575;28;20800;-76
2023/08/31 08:33:45;;;;;;;2.63;0.40;;;;;;;;;;4986427;28;20022;-74
2023/08/31 08:36:11;;;;;;;5.70;1.48;;;;;;;;;;4983335;28;20049;-75
2023/08/31 08:38:37;;;;;;;3.03;0.60;;;;;;;;;;4980410;28;20038;-74
2023/08/31 08:41:07;;;;;;;5.13;0.60;;;;;;;;;;4982266;28;20121;-74
2023/08/31 08:43:35;;;;;;;3.03;0.95;;;;;;;;;;4980868;28;20121;-74
2023/08/31 08:46:05;;;;;;;5.28;1.48;;;;;;;;;;4984538;28;20468;-74
2023/08/31 08:48:31;;;;;;;5.57;0.82;;;;;;;;;;4984428;28;20031;-75
2023/08/31 08:50:57;;;;;;;3.05;0.40;;;;;;;;;;4994183;28;20038;-73
2023/08/31 08:53:23;;;;;;;7.43;1.30;;;;;;;;;;4983502;28;20086;-74
2023/08/31 08:55:49;;;;;;;6.65;0.60;;;;;;;;;;4986691;28;20034;-73
2023/08/31 08:58:15;;;;;;;1.52;0.43;;;;;;;;;;4983549;28;20122;-74
2023/08/31 09:00:42;;;;;;;4.57;1.30;;;;;;;;;;4984958;28;20041;-77
2023/08/31 09:03:08;;;;;;;3.15;0.63;;;;;;;;;;4981920;28;20022;-77
2023/08/31 09:05:34;;;;;;;5.25;1.10;;;;;;;;;;4984877;28;22398;-75
2023/08/31 09:08:01;;;;;;;3.22;0.70;;;;;;;;;;4987569;28;20468;-76
2023/08/31 09:10:33;;;;;;;2.25;0.55;;;;;;;;;;4980352;28;20027;-75
2023/08/31 09:13:00;;;;;;;3.53;0.47;;;;;;;;;;4979789;28;20190;-75
2023/08/31 09:15:26;;;;;;;2.60;0.50;;;;;;;;;;4978613;28;20086;-75
2023/08/31 09:17:52;;;;;;;2.10;0.50;;;;;;;;;;4978552;28;20026;-75
2023/08/31 09:20:19;;;;;;;4.32;0.88;;;;;;;;;;4981660;28;20440;-76
2023/08/31 09:22:45;;;;;;;2.92;1.02;;;;;;;;;;4979012;28;20042;-77
2023/08/31 09:25:11;;;;;;;2.88;0.60;;;;;;;;;;4987512;28;20029;-80
2023/08/31 09:27:38;;;;;;;1.77;0.52;;;;;;;;;;4984929;28;20049;-77
2023/08/31 09:30:05;;;;;;;2.38;0.70;;;;;;;;;;4984757;28;20023;-76
2023/08/31 09:32:31;;;;;;;2.42;0.82;;;;;;;;;;4992781;28;20049;-74
2023/08/31 09:35:02;;;;;;;2.40;0.60;;;;;;;;;;4989422;28;20351;-78
2023/08/31 09:37:28;;;;;;;4.60;0.63;;;;;;;;;;4996152;28;20186;-74
2023/08/31 09:39:54;;;;;;;4.70;1.00;;;;;;;;;;4983699;28;20392;-75
2023/08/31 09:42:20;;;;;;;4.38;0.43;;;;;;;;;;4982937;28;20081;-77
2023/08/31 09:44:49;;;;;;;2.05;0.60;;;;;;;;;;4988151;28;20046;-75
2023/08/31 09:47:16;;;;;;;4.10;1.38;;;;;;;;;;4984877;28;20018;-75
2023/08/31 09:49:43;;;;;;;6.13;2.22;;;;;;;;;;4980024;28;20053;-77
2023/08/31 09:52:09;;;;;;;2.20;0.50;;;;;;;;;;4986182;28;20038;-79
2023/08/31 09:54:36;;;;;;;1.27;0.60;;;;;;;;;;4989099;28;20037;-75
2023/08/31 09:57:02;;;;;;;1.08;0.30;;;;;;;;;;4995322;28;20483;-76
2023/08/31 09:59:29;;;;;;;1.05;0.40;;;;;;;;;;4988939;28;20030;-77
2023/08/31 10:02:00;;;;;;;1.42;0.30;;;;;;;;;;4984434;28;20035;-74
2023/08/31 10:04:27;;;;;;;3.30;0.40;;;;;;;;;;4983896;28;20034;-75
2023/08/31 10:06:53;;;;;;;4.20;0.50;;;;;;;;;;4984453;28;20066;-77
2023/08/31 10:09:19;;;;;;;3.58;0.80;;;;;;;;;;4981756;28;20032;-78
2023/08/31 10:11:46;;;;;;;3.80;0.50;;;;;;;;;;4985082;28;20457;-78
2023/08/31 10:14:13;;;;;;;1.63;0.45;;;;;;;;;;4981509;28;20438;-76
2023/08/31 10:16:44;;;;;;;1.83;0.68;;;;;;;;;;4986346;28;20473;-74
2023/08/31 10:19:10;;;;;;;1.75;0.57;;;;;;;;;;4986192;28;20161;-74
2023/08/31 10:21:37;;;;;;;2.47;0.60;;;;;;;;;;4988417;28;20128;-76
2023/08/31 10:24:04;;;;;;;2.10;0.60;;;;;;;;;;4990845;28;20030;-73
2023/08/31 10:26:31;;;;;;;2.92;0.82;;;;;;;;;;4983708;28;20035;-80
2023/08/31 10:28:58;;;;;;;2.47;0.85;;;;;;;;;;5008585;28;20034;-77
2023/08/31 10:31:24;;;;;;;3.35;0.75;;;;;;;;;;4978351;28;20076;-74
2023/08/31 10:33:58;;;;;;;3.45;0.60;;;;;;;;;;4992034;28;20058;-76
2023/08/31 10:36:36;;;;;;;4.00;0.93;;;;;;;;;;4990669;28;20030;-81
2023/08/31 10:39:06;;;;;;;3.45;0.65;;;;;;;;;;4987488;28;20105;-73
2023/08/31 10:41:35;;;;;;;2.05;0.70;;;;;;;;;;4985007;28;20034;-72
2023/08/31 10:44:02;;;;;;;2.65;0.57;;;;;;;;;;4990593;28;20019;-74
2023/08/31 10:46:32;;;;;;;2.33;0.52;;;;;;;;;;4987703;28;20375;-74
2023/08/31 10:49:14;;;;;;;7.47;5.15;;;;;;;;;;4975879;28;20039;-76
2023/08/31 10:51:40;;;;;;;3.63;0.60;;;;;;;;;;4984978;28;20034;-79
2023/08/31 10:54:15;;;;;;;1.83;0.50;;;;;;;;;;4990172;28;20531;-77
2023/08/31 10:56:56;;;;;;;4.88;0.60;;;;;;;;;;4990921;28;20480;-80
2023/08/31 10:59:23;;;;;;;2.40;0.63;;;;;;;;;;4987890;28;20054;-80
2023/08/31 11:01:55;;;;;;;3.88;0.45;;;;;;;;;;4985824;28;20145;-81
2023/08/31 11:04:21;;;;;;;4.07;0.70;;;;;;;;;;4986780;28;20213;-80
2023/08/31 11:06:48;;;;;;;1.80;0.63;;;;;;;;;;4985517;28;20050;-78
2023/08/31 11:09:19;;;;;;;2.50;0.70;;;;;;;;;;4983934;28;20081;-77
2023/08/31 11:11:45;;;;;;;1.08;0.55;;;;;;;;;;4986727;28;20034;-80
2023/08/31 11:14:11;;;;;;;2.45;0.60;;;;;;;;;;4987503;28;20038;-77
2023/08/31 11:16:40;;;;;;;2.75;0.70;;;;;;;;;;4985722;28;20117;-77
2023/08/31 11:19:06;;;;;;;5.53;0.90;;;;;;;;;;4982176;28;20038;-77
2023/08/31 11:21:32;;;;;;;5.00;0.82;;;;;;;;;;4978463;28;20105;-75
2023/08/31 11:23:59;;;;;;;2.35;0.70;;;;;;;;;;4981142;28;20026;-77
2023/08/31 11:26:26;;;;;;;2.45;0.70;;;;;;;;;;4986928;28;20517;-76
2023/08/31 11:28:52;;;;;;;5.75;1.17;;;;;;;;;;4984592;28;20041;-75
2023/08/31 11:31:25;;;;;;;3.60;1.40;;;;;;;;;;4985641;28;20038;-75
2023/08/31 11:33:51;;;;;;;2.13;0.70;;;;;;;;;;4985645;28;20421;-76
2023/08/31 11:36:17;;;;;;;2.05;0.43;;;;;;;;;;4987965;28;20117;-76
2023/08/31 11:38:44;;;;;;;2.10;0.57;;;;;;;;;;4987137;28;20396;-76
2023/08/31 11:41:10;;;;;;;1.88;0.50;;;;;;;;;;4986835;28;20038;-80
2023/08/31 11:43:37;;;;;;;3.60;0.40;;;;;;;;;;4983463;28;20057;-77
2023/08/31 11:46:04;;;;;;;4.55;0.60;;;;;;;;;;5001355;28;20034;-77
2023/08/31 11:48:30;;;;;;;4.35;0.68;;;;;;;;;;4980494;28;20322;-77
2023/08/31 11:50:56;;;;;;;2.45;0.60;;;;;;;;;;4986346;28;20546;-76
2023/08/31 11:53:22;;;;;;;9.60;1.27;;;;;;;;;;4986968;28;20034;-77
2023/08/31 11:55:53;;;;;;;4.55;1.25;;;;;;;;;;4982167;28;20065;-79
2023/08/31 11:58:19;;;;;;;5.57;1.10;;;;;;;;;;4986257;28;20034;-75
2023/08/31 12:00:46;;;;;;;3.20;0.80;;;;;;;;;;4987740;28;20062;-76
2023/08/31 12:03:12;;;;;;;6.63;0.60;;;;;;;;;;4983405;28;20053;-77
2023/08/31 12:05:45;;;;;;;3.75;0.82;;;;;;;;;;4979284;28;20101;-76
2023/08/31 12:08:11;;;;;;;1.90;0.63;;;;;;;;;;4979976;28;20045;-75
2023/08/31 12:10:41;;;;;;;4.00;0.82;;;;;;;;;;4986067;28;20039;-76
2023/08/31 12:13:10;;;;;;;1.65;0.60;;;;;;;;;;4985638;28;20580;-75
2023/08/31 12:15:36;;;;;;;10.13;1.20;;;;;;;;;;4984938;28;20205;-74
2023/08/31 12:18:09;;;;;;;4.00;0.90;;;;;;;;;;4981692;28;20638;-75
2023/08/31 12:20:43;;;;;;;3.53;1.40;;;;;;;;;;4978870;28;20040;-74
2023/08/31 12:23:09;;;;;;;5.07;1.02;;;;;;;;;;4989792;28;20042;-75
2023/08/31 12:25:36;;;;;;;6.40;1.02;;;;;;;;;;4985769;28;20113;-74
2023/08/31 12:28:02;;;;;;;5.75;1.10;;;;;;;;;;4981461;28;20034;-76
2023/08/31 12:30:28;;;;;;;6.43;0.95;;;;;;;;;;4982261;28;20035;-75
2023/08/31 12:32:54;;;;;;;3.72;0.88;;;;;;;;;;4985054;28;20118;-74
2023/08/31 12:35:21;;;;;;;1.67;0.77;;;;;;;;;;4985530;28;20030;-74
2023/08/31 12:37:47;;;;;;;2.53;0.70;;;;;;;;;;4982761;28;20042;-74
2023/08/31 12:40:13;;;;;;;2.30;0.85;;;;;;;;;;4983286;28;20041;-75
2023/08/31 12:42:39;;;;;;;2.90;0.52;;;;;;;;;;4981382;28;20070;-76
2023/08/31 12:45:06;;;;;;;1.98;0.73;;;;;;;;;;4980318;28;20128;-75
2023/08/31 12:47:32;;;;;;;6.20;0.82;;;;;;;;;;4976715;28;20049;-75
2023/08/31 12:49:58;;;;;;;2.70;0.90;;;;;;;;;;4981199;28;20109;-74
2023/08/31 12:52:24;;;;;;;3.42;0.70;;;;;;;;;;4983292;28;20502;-73
2023/08/31 12:54:50;;;;;;;4.28;1.08;;;;;;;;;;4985863;28;20038;-75
2023/08/31 12:57:16;;;;;;;2.22;0.60;;;;;;;;;;4977843;28;20261;-75
2023/08/31 12:59:42;;;;;;;4.60;1.13;;;;;;;;;;4982187;28;20429;-77
2023/08/31 13:02:10;;;;;;;2.63;0.55;;;;;;;;;;4984685;28;20035;-75
2023/08/31 13:04:36;;;;;;;4.00;0.85;;;;;;;;;;4983486;28;20369;-74
2023/08/31 13:07:03;;;;;;;5.78;1.08;;;;;;;;;;4984913;28;20064;-76
2023/08/31 13:09:29;;;;;;;3.50;1.08;;;;;;;;;;4985386;28;20050;-77
2023/08/31 13:11:55;;;;;;;2.33;0.93;;;;;;;;;;4983273;28;20047;-75
2023/08/31 13:14:21;;;;;;;3.35;0.63;;;;;;;;;;4983720;28;20405;-74
2023/08/31 13:16:47;;;;;;;6.28;0.90;;;;;;;;;;4980801;28;20113;-74
2023/08/31 13:19:13;;;;;;;6.70;1.80;;;;;;;;;;4985195;28;20117;-75
2023/08/31 13:21:39;;;;;;;4.93;0.90;;;;;;;;;;4980875;28;20090;-76
2023/08/31 13:24:05;;;;;;;7.60;0.98;;;;;;;;;;4983952;28;20042;-77
2023/08/31 13:26:31;;;;;;;5.40;1.20;;;;;;;;;;4983515;28;20138;-77
2023/08/31 13:28:57;;;;;;;4.22;0.88;;;;;;;;;;4986171;28;20113;-75
2023/08/31 13:31:23;;;;;;;3.15;0.60;;;;;;;;;;4984466;28;20254;-74
2023/08/31 13:33:49;;;;;;;7.30;0.77;;;;;;;;;;4985754;28;20096;-73
2023/08/31 13:36:15;;;;;;;2.70;0.90;;;;;;;;;;4975444;28;20516;-73
2023/08/31 13:38:41;;;;;;;2.72;0.60;;;;;;;;;;4990382;28;20093;-74
2023/08/31 13:41:08;;;;;;;2.60;0.77;;;;;;;;;;4980898;28;20035;-77
2023/08/31 13:43:34;;;;;;;5.13;0.90;;;;;;;;;;4980850;28;20121;-73
2023/08/31 13:46:00;;;;;;;6.07;0.88;;;;;;;;;;4977226;28;20041;-74
2023/08/31 13:48:26;;;;;;;2.88;0.80;;;;;;;;;;4980831;28;20066;-73
2023/08/31 13:50:52;;;;;;;2.22;0.60;;;;;;;;;;4979279;28;20058;-75
2023/08/31 13:53:18;;;;;;;4.18;1.02;;;;;;;;;;4984319;28;20030;-75
2023/08/31 13:55:45;;;;;;;5.45;1.50;;;;;;;;;;4976195;28;20055;-76
2023/08/31 13:58:11;;;;;;;4.18;0.85;;;;;;;;;;4980337;28;20037;-75
2023/08/31 14:00:37;;;;;;;5.68;0.88;;;;;;;;;;4982535;28;20501;-75
2023/08/31 14:03:04;;;;;;;5.15;0.90;;;;;;;;;;4986339;28;20081;-73
2023/08/31 14:05:31;;;;;;;5.57;1.00;;;;;;;;;;4983964;28;20038;-78
2023/08/31 14:07:57;;;;;;;3.33;0.98;;;;;;;;;;4983446;28;20455;-74
2023/08/31 14:10:24;;;;;;;2.83;0.88;;;;;;;;;;4987314;28;20054;-76
2023/08/31 14:12:50;;;;;;;5.22;1.30;;;;;;;;;;4986522;28;20034;-73
2023/08/31 14:15:16;;;;;;;4.93;1.42;;;;;;;;;;4986175;28;20101;-74
2023/08/31 14:17:42;;;;;;;5.18;1.00;;;;;;;;;;4987268;28;20045;-73
2023/08/31 14:20:09;;;;;;;3.25;0.85;;;;;;;;;;4989974;28;20031;-74
2023/08/31 14:22:36;;;;;;;17.13;1.48;;;;;;;;;;4987797;28;20043;-78
2023/08/31 14:25:03;;;;;;;5.53;0.82;;;;;;;;;;4988178;28;20484;-74
2023/08/31 14:27:30;;;;;;;5.35;0.95;;;;;;;;;;4989375;28;20038;-76
2023/08/31 14:29:57;;;;;;;4.35;0.95;;;;;;;;;;4987076;28;20534;-74
2023/08/31 14:32:23;;;;;;;6.20;0.80;;;;;;;;;;4992302;28;20042;-74
2023/08/31 14:34:49;;;;;;;4.57;0.90;;;;;;;;;;4981751;28;20057;-74
2023/08/31 14:37:15;;;;;;;7.63;1.20;;;;;;;;;;4989344;28;20053;-77
2023/08/31 14:39:41;;;;;;;5.00;0.93;;;;;;;;;;4988328;28;20305;-73
2023/08/31 14:42:07;;;;;;;6.70;1.50;;;;;;;;;;4980877;28;20085;-73